createdAt,value
2019-01-19T00:00:16.739Z,320.73
2019-01-19T00:03:17.154Z,297.53
2019-01-19T00:06:34.254Z,306.13
2019-01-19T00:09:17.701Z,295.83
2019-01-19T00:12:35.429Z,279.30
2019-01-19T00:15:18.320Z,249.27
2019-01-19T00:18:39.347Z,252.23
2019-01-19T00:21:36.921Z,252.30
2019-01-19T00:24:57.697Z,225.00
2019-01-19T00:27:47.193Z,206.17
2019-01-19T00:30:36.261Z,197.00
2019-01-19T00:33:55.731Z,191.03
2019-01-19T00:36:43.879Z,172.57
2019-01-19T00:39:51.880Z,177.17
2019-01-19T00:42:56.616Z,162.73
2019-01-19T00:46:12.101Z,171.13
2019-01-19T00:48:58.789Z,163.30
2019-01-19T00:52:13.662Z,175.23
2019-01-19T00:55:11.937Z,161.23
2019-01-19T00:58:26.394Z,160.83
2019-01-19T01:01:32.855Z,156.53
2019-01-19T01:04:26.632Z,134.70
2019-01-19T01:07:52.656Z,127.33
2019-01-19T01:10:32.815Z,108.40
2019-01-19T01:13:35.286Z,103.40
2019-01-19T01:16:48.206Z,97.97
2019-01-19T01:20:18.208Z,97.07
2019-01-19T01:23:12.701Z,104.80
2019-01-19T01:26:17.754Z,108.40
2019-01-19T01:29:16.222Z,114.50
2019-01-19T01:32:13.698Z,119.20
2019-01-19T01:35:21.378Z,109.43
2019-01-19T01:38:05.379Z,112.60
2019-01-19T01:41:09.359Z,119.70
2019-01-19T01:44:22.371Z,119.27
2019-01-19T01:47:42.343Z,112.70
2019-01-19T01:50:59.669Z,119.77
2019-01-19T01:54:10.334Z,115.43
2019-01-19T01:56:41.690Z,135.00
2019-01-19T01:59:36.285Z,144.23
2019-01-19T02:02:45.107Z,137.23
2019-01-19T02:06:00.884Z,155.57
2019-01-19T02:09:16.875Z,144.27
2019-01-19T02:12:39.926Z,81.13
2019-01-19T02:15:26.024Z,72.03
2019-01-19T02:18:22.052Z,69.57
2019-01-19T02:21:26.892Z,78.43
2019-01-19T02:24:38.669Z,74.37
2019-01-19T02:27:44.019Z,62.60
2019-01-19T02:30:59.178Z,65.53
2019-01-19T02:34:32.472Z,71.13
2019-01-19T02:37:50.830Z,74.60
2019-01-19T02:40:39.864Z,74.40
2019-01-19T02:43:36.710Z,67.97
2019-01-19T02:46:55.974Z,67.03
2019-01-19T02:50:04.281Z,68.77
2019-01-19T02:53:28.712Z,67.17
2019-01-19T02:56:43.504Z,69.97
2019-01-19T02:59:34.657Z,72.70
2019-01-19T03:02:32.598Z,72.27
2019-01-19T03:05:25.783Z,67.30
2019-01-19T03:08:53.425Z,75.80
2019-01-19T03:11:46.102Z,76.10
2019-01-19T03:14:41.506Z,77.57
2019-01-19T03:18:14.694Z,73.93
2019-01-19T03:21:31.799Z,78.73
2019-01-19T03:24:44.500Z,71.47
2019-01-19T03:27:52.291Z,67.60
2019-01-19T03:30:41.263Z,78.70
2019-01-19T03:33:58.391Z,78.37
2019-01-19T03:37:19.178Z,69.27
2019-01-19T03:40:14.805Z,67.87
2019-01-19T03:43:12.828Z,74.30
2019-01-19T03:46:10.279Z,75.83
2019-01-19T03:49:21.401Z,70.17
2019-01-19T03:52:21.126Z,76.37
2019-01-19T03:55:38.165Z,69.97
2019-01-19T03:58:43.571Z,69.70
2019-01-19T04:01:55.333Z,61.07
2019-01-19T04:04:36.823Z,68.73
2019-01-19T04:07:39.245Z,68.80
2019-01-19T04:10:32.495Z,75.10
2019-01-19T04:13:19.717Z,67.83
2019-01-19T04:16:29.280Z,65.93
2019-01-19T04:19:26.828Z,70.90
2019-01-19T04:22:07.051Z,70.47
2019-01-19T04:25:11.531Z,68.70
2019-01-19T04:27:42.526Z,74.97
2019-01-19T04:30:14.124Z,74.57
2019-01-19T04:32:45.475Z,163.53
2019-01-19T04:35:16.660Z,165.53
2019-01-19T04:37:47.788Z,157.17
2019-01-19T04:40:19.126Z,118.00
2019-01-19T04:42:51.335Z,92.00
2019-01-19T04:45:22.686Z,80.63
2019-01-19T04:47:53.991Z,94.93
2019-01-19T04:50:25.314Z,89.00
2019-01-19T04:52:56.669Z,102.13
2019-01-19T04:55:27.999Z,140.03
2019-01-19T04:57:59.107Z,125.50
2019-01-19T05:00:30.470Z,146.13
2019-01-19T05:03:01.682Z,140.47
2019-01-19T05:05:32.884Z,164.53
2019-01-19T05:08:04.290Z,139.73
2019-01-19T05:10:35.843Z,150.30
2019-01-19T05:13:07.134Z,127.67
2019-01-19T05:15:38.499Z,133.17
2019-01-19T05:18:11.589Z,141.10
2019-01-19T05:20:42.873Z,160.73
2019-01-19T05:23:13.927Z,153.13
2019-01-19T05:25:46.342Z,149.40
2019-01-19T05:28:17.667Z,130.93
2019-01-19T05:30:48.936Z,137.37
2019-01-19T05:33:20.296Z,151.07
2019-01-19T05:35:51.488Z,136.70
2019-01-19T05:38:22.618Z,150.50
2019-01-19T05:40:53.819Z,142.47
2019-01-19T05:43:25.145Z,129.77
2019-01-19T05:45:56.573Z,145.73
2019-01-19T05:48:27.735Z,141.97
2019-01-19T05:50:59.178Z,132.87
2019-01-19T05:53:30.498Z,137.00
2019-01-19T05:56:01.687Z,128.60
2019-01-19T05:58:33.035Z,132.80
2019-01-19T06:01:04.403Z,139.80
2019-01-19T06:03:35.539Z,134.27
2019-01-19T06:06:06.894Z,133.67
2019-01-19T06:08:38.226Z,127.53
2019-01-19T06:11:09.597Z,138.57
2019-01-19T06:13:40.775Z,137.47
2019-01-19T06:16:12.289Z,203.20
2019-01-19T06:18:44.166Z,147.17
2019-01-19T06:21:16.936Z,159.20
2019-01-19T06:23:48.278Z,137.17
2019-01-19T06:26:19.615Z,154.50
2019-01-19T06:28:50.704Z,146.27
2019-01-19T06:31:22.040Z,150.00
2019-01-19T06:33:53.752Z,148.53
2019-01-19T06:36:25.277Z,138.03
2019-01-19T06:38:56.676Z,157.50
2019-01-19T06:41:28.208Z,234.77
2019-01-19T06:43:59.530Z,289.52
2019-01-19T06:46:30.928Z,247.63
2019-01-19T06:49:02.210Z,236.07
2019-01-19T06:51:33.530Z,224.27
2019-01-19T06:54:05.395Z,222.43
2019-01-19T06:56:36.731Z,216.83
2019-01-19T06:59:07.927Z,206.13
2019-01-19T07:01:39.332Z,197.60
2019-01-19T07:04:10.674Z,202.60
2019-01-19T07:06:41.946Z,209.80
2019-01-19T07:09:13.156Z,201.77
2019-01-19T07:11:44.964Z,207.77
2019-01-19T07:14:16.212Z,208.90
2019-01-19T07:16:47.418Z,209.60
2019-01-19T07:19:18.812Z,239.33
2019-01-19T07:21:50.139Z,245.07
2019-01-19T07:24:21.460Z,242.87
2019-01-19T07:26:52.799Z,218.60
2019-01-19T07:29:24.096Z,220.20
2019-01-19T07:31:55.290Z,312.40
2019-01-19T07:34:26.733Z,286.27
2019-01-19T07:36:58.016Z,260.90
2019-01-19T07:39:29.294Z,281.50
2019-01-19T07:42:00.713Z,273.80
2019-01-19T07:44:31.914Z,280.30
2019-01-19T07:47:05.389Z,271.63
2019-01-19T07:49:36.620Z,271.73
2019-01-19T07:52:08.135Z,261.77
2019-01-19T07:54:39.416Z,264.93
2019-01-19T07:57:10.853Z,228.27
2019-01-19T07:59:42.070Z,249.17
2019-01-19T08:02:13.428Z,220.10
2019-01-19T08:04:44.779Z,221.77
2019-01-19T08:07:17.367Z,224.87
2019-01-19T08:09:49.067Z,209.00
2019-01-19T08:12:20.290Z,208.73
2019-01-19T08:14:51.676Z,190.60
2019-01-19T08:17:22.905Z,173.90
2019-01-19T08:19:54.349Z,183.23
2019-01-19T08:22:25.693Z,177.57
2019-01-19T08:24:56.783Z,199.63
2019-01-19T08:27:28.146Z,171.57
2019-01-19T08:29:59.469Z,158.03
2019-01-19T08:32:30.670Z,157.33
2019-01-19T08:35:01.933Z,153.87
2019-01-19T08:37:33.022Z,165.57
2019-01-19T08:40:04.841Z,147.17
2019-01-19T08:42:36.586Z,199.30
2019-01-19T08:45:08.384Z,220.13
2019-01-19T08:47:39.564Z,201.10
2019-01-19T08:50:10.899Z,229.73
2019-01-19T08:52:42.278Z,200.43
2019-01-19T08:55:13.653Z,194.70
2019-01-19T08:57:44.910Z,179.00
2019-01-19T09:00:16.785Z,190.20
2019-01-19T09:02:48.185Z,190.00
2019-01-19T09:05:19.515Z,223.17
2019-01-19T09:07:50.739Z,250.67
2019-01-19T09:10:21.993Z,232.33
2019-01-19T09:12:54.598Z,226.40
2019-01-19T09:15:25.999Z,217.10
2019-01-19T09:17:57.308Z,206.53
2019-01-19T09:20:28.563Z,196.80
2019-01-19T09:23:04.496Z,189.97
2019-01-19T09:25:35.754Z,199.80
2019-01-19T09:28:06.868Z,194.77
2019-01-19T09:30:38.146Z,186.63
2019-01-19T09:33:09.599Z,192.60
2019-01-19T09:35:40.814Z,185.90
2019-01-19T09:38:12.410Z,168.30
2019-01-19T09:40:43.532Z,165.93
2019-01-19T09:43:15.171Z,178.57
2019-01-19T09:45:46.431Z,170.33
2019-01-19T09:48:17.775Z,176.27
2019-01-19T09:50:49.091Z,146.73
2019-01-19T09:53:20.445Z,160.53
2019-01-19T09:55:51.711Z,154.93
2019-01-19T09:58:23.065Z,142.37
2019-01-19T10:00:55.166Z,178.70
2019-01-19T10:03:26.466Z,172.77
2019-01-19T10:05:57.825Z,108.67
2019-01-19T10:08:29.276Z,127.57
2019-01-19T10:11:00.659Z,168.17
2019-01-19T10:13:31.926Z,158.87
2019-01-19T10:16:03.304Z,124.93
2019-01-19T10:18:34.867Z,121.00
2019-01-19T10:21:06.125Z,121.87
2019-01-19T10:23:37.560Z,121.77
2019-01-19T10:26:08.876Z,124.63
2019-01-19T10:28:41.092Z,132.47
2019-01-19T10:31:12.561Z,142.00
2019-01-19T10:33:43.761Z,137.23
2019-01-19T10:36:15.054Z,139.33
2019-01-19T10:38:46.352Z,133.97
2019-01-19T10:41:17.623Z,133.10
2019-01-19T10:43:49.349Z,142.67
2019-01-19T10:46:20.456Z,131.57
2019-01-19T10:48:51.753Z,113.57
2019-01-19T10:51:22.936Z,123.20
2019-01-19T10:53:54.246Z,118.20
2019-01-19T10:56:25.665Z,117.17
2019-01-19T10:58:56.914Z,105.17
2019-01-19T11:01:28.389Z,102.07
2019-01-19T11:03:59.807Z,108.93
2019-01-19T11:06:31.033Z,104.43
2019-01-19T11:09:02.430Z,110.67
2019-01-19T11:11:36.566Z,113.00
2019-01-19T11:14:07.859Z,113.97
2019-01-19T11:16:39.144Z,115.43
2019-01-19T11:19:10.539Z,112.07
2019-01-19T11:21:41.743Z,112.13
2019-01-19T11:24:13.007Z,99.50
2019-01-19T11:26:44.398Z,101.27
2019-01-19T11:29:16.766Z,100.63
2019-01-19T11:31:48.089Z,95.67
2019-01-19T11:34:20.516Z,101.17
2019-01-19T11:36:51.795Z,96.40
2019-01-19T11:39:22.995Z,107.47
2019-01-19T11:41:54.241Z,106.90
2019-01-19T11:44:25.540Z,92.27
2019-01-19T11:46:56.890Z,98.80
2019-01-19T11:49:27.975Z,104.30
2019-01-19T11:51:59.164Z,100.97
2019-01-19T11:54:30.525Z,83.60
2019-01-19T11:57:01.733Z,91.03
2019-01-19T11:59:33.041Z,91.93
2019-01-19T12:02:04.442Z,86.37
2019-01-19T12:04:35.859Z,93.33
2019-01-19T12:07:07.084Z,98.23
2019-01-19T12:09:38.395Z,101.17
2019-01-19T12:12:09.588Z,99.20
2019-01-19T12:14:40.823Z,96.37
2019-01-19T12:17:12.131Z,101.27
2019-01-19T12:19:43.443Z,96.80
2019-01-19T12:22:14.596Z,97.03
2019-01-19T12:24:45.951Z,96.00
2019-01-19T12:27:17.296Z,98.00
2019-01-19T12:29:48.550Z,93.83
2019-01-19T12:32:19.869Z,89.70
2019-01-19T12:34:51.099Z,92.63
2019-01-19T12:37:22.526Z,102.57
2019-01-19T12:39:53.841Z,109.87
2019-01-19T12:42:25.030Z,99.57
2019-01-19T12:44:56.236Z,91.43
2019-01-19T12:47:29.049Z,91.40
2019-01-19T12:50:00.459Z,90.67
2019-01-19T12:52:31.737Z,88.80
2019-01-19T12:55:03.118Z,86.67
2019-01-19T12:57:34.227Z,77.60
2019-01-19T13:00:06.561Z,86.17
2019-01-19T13:02:37.772Z,111.87
2019-01-19T13:05:13.921Z,95.67
2019-01-19T13:07:45.095Z,90.43
2019-01-19T13:10:23.115Z,84.90
2019-01-19T13:13:18.568Z,79.53
2019-01-19T13:16:25.361Z,77.77
2019-01-19T13:19:36.440Z,87.77
2019-01-19T13:22:47.931Z,94.27
2019-01-19T13:26:06.453Z,97.53
2019-01-19T13:29:36.480Z,85.00
2019-01-19T13:32:56.627Z,86.30
2019-01-19T13:36:04.281Z,87.70
2019-01-19T13:39:23.311Z,90.77
2019-01-19T13:42:49.482Z,87.57
2019-01-19T13:46:16.343Z,99.57
2019-01-19T13:49:31.023Z,99.73
2019-01-19T13:52:20.588Z,104.43
2019-01-19T13:55:25.336Z,90.43
2019-01-19T13:58:05.145Z,92.90
2019-01-19T14:01:07.139Z,93.23
2019-01-19T14:04:03.060Z,116.17
2019-01-19T14:06:42.205Z,101.13
2019-01-19T14:09:46.253Z,94.57
2019-01-19T14:13:00.366Z,88.77
2019-01-19T14:15:55.932Z,97.97
2019-01-19T14:19:12.801Z,95.30
2019-01-19T14:22:09.939Z,115.23
2019-01-19T14:25:17.750Z,95.07
2019-01-19T14:28:29.636Z,106.47
2019-01-19T14:31:46.659Z,97.63
2019-01-19T14:34:28.037Z,100.97
2019-01-19T14:37:37.061Z,106.17
2019-01-19T14:41:07.088Z,107.30
2019-01-19T14:44:06.871Z,107.97
2019-01-19T14:46:56.980Z,103.43
2019-01-19T14:50:03.950Z,93.80
2019-01-19T14:53:12.479Z,99.37
2019-01-19T14:56:20.321Z,96.90
2019-01-19T14:59:38.205Z,99.67
2019-01-19T15:03:14.454Z,108.53
2019-01-19T15:06:22.045Z,105.37
2019-01-19T15:09:13.350Z,102.23
2019-01-19T15:12:08.748Z,106.20
2019-01-19T15:15:35.528Z,109.73
2019-01-19T15:18:31.559Z,198.90
2019-01-19T15:21:13.239Z,204.40
2019-01-19T15:24:49.543Z,115.23
2019-01-19T15:27:58.185Z,113.20
2019-01-19T15:31:01.771Z,109.70
2019-01-19T15:33:57.736Z,108.13
2019-01-19T15:37:09.126Z,109.40
2019-01-19T15:40:21.529Z,212.03
2019-01-19T15:43:45.449Z,121.27
2019-01-19T15:46:53.194Z,123.13
2019-01-19T15:49:56.803Z,114.27
2019-01-19T15:53:07.228Z,116.40
2019-01-19T15:56:28.667Z,115.83
2019-01-19T15:59:38.927Z,119.20
2019-01-19T16:02:53.224Z,125.83
2019-01-19T16:06:11.727Z,242.10
2019-01-19T16:09:36.886Z,131.37
2019-01-19T16:12:17.245Z,122.53
2019-01-19T16:15:09.920Z,140.63
2019-01-19T16:18:36.152Z,161.43
2019-01-19T16:21:44.355Z,160.77
2019-01-19T16:24:44.874Z,159.33
2019-01-19T16:27:54.015Z,173.03
2019-01-19T16:30:53.817Z,165.63
2019-01-19T16:34:15.144Z,198.00
2019-01-19T16:37:01.959Z,245.60
2019-01-19T16:40:18.868Z,253.30
2019-01-19T16:43:15.206Z,254.93
2019-01-19T16:46:31.711Z,136.67
2019-01-19T16:49:35.221Z,302.80
2019-01-19T16:52:37.377Z,135.73
2019-01-19T16:55:30.337Z,257.47
2019-01-19T16:58:57.677Z,235.70
2019-01-19T17:02:09.327Z,258.03
2019-01-19T17:05:10.305Z,339.47
2019-01-19T17:08:22.960Z,247.47
2019-01-19T17:11:37.172Z,358.03
2019-01-19T17:15:01.524Z,55.50
2019-01-19T17:18:12.648Z,59.27
2019-01-19T17:21:19.365Z,57.63
2019-01-19T17:24:30.754Z,61.43
2019-01-19T17:27:37.025Z,80.57
2019-01-19T17:30:39.744Z,91.73
2019-01-19T17:33:48.132Z,110.40
2019-01-19T17:36:53.669Z,109.80
2019-01-19T17:40:01.702Z,73.67
2019-01-19T17:43:17.932Z,70.40
2019-01-19T17:46:00.235Z,66.20
2019-01-19T17:48:53.246Z,76.77
2019-01-19T17:52:11.160Z,68.17
2019-01-19T17:55:14.715Z,84.60
2019-01-19T17:58:23.950Z,68.77
2019-01-19T18:01:30.650Z,69.67
2019-01-19T18:04:20.165Z,49.20
2019-01-19T18:07:04.606Z,52.53
2019-01-19T18:10:06.113Z,47.40
2019-01-19T18:13:33.605Z,47.03
2019-01-19T18:16:41.617Z,42.23
2019-01-19T18:19:46.136Z,42.47
2019-01-19T18:23:09.911Z,35.30
2019-01-19T18:26:04.131Z,33.10
2019-01-19T18:29:17.183Z,34.07
2019-01-19T18:32:08.793Z,35.43
2019-01-19T18:35:14.554Z,32.17
2019-01-19T18:38:28.176Z,38.90
2019-01-19T18:41:30.286Z,40.27
2019-01-19T18:44:39.396Z,38.43
2019-01-19T18:47:47.593Z,42.17
2019-01-19T18:50:43.989Z,44.50
2019-01-19T18:53:59.597Z,46.77
2019-01-19T18:57:12.358Z,41.37
2019-01-19T18:59:53.179Z,46.23
2019-01-19T19:02:51.537Z,48.83
2019-01-19T19:06:03.826Z,49.87
2019-01-19T19:09:08.713Z,58.03
2019-01-19T19:12:15.641Z,55.83
2019-01-19T19:15:10.622Z,57.80
2019-01-19T19:18:18.056Z,51.33
2019-01-19T19:21:19.982Z,53.70
2019-01-19T19:24:49.510Z,57.20
2019-01-19T19:27:31.750Z,53.27
2019-01-19T19:30:48.759Z,62.93
2019-01-19T19:34:08.941Z,64.43
2019-01-19T19:37:27.443Z,69.30
2019-01-19T19:40:30.944Z,73.40
2019-01-19T19:43:28.710Z,63.60
2019-01-19T19:46:10.743Z,71.30
2019-01-19T19:49:08.432Z,66.13
2019-01-19T19:51:56.458Z,74.97
2019-01-19T19:54:28.500Z,70.73
2019-01-19T19:56:59.839Z,69.27
2019-01-19T19:59:31.216Z,67.20
2019-01-19T20:02:02.542Z,75.27
2019-01-19T20:04:33.763Z,74.43
2019-01-19T20:07:05.514Z,74.33
2019-01-19T20:09:36.801Z,72.37
2019-01-19T20:12:09.178Z,75.10
2019-01-19T20:14:40.621Z,84.43
2019-01-19T20:17:11.964Z,87.10
2019-01-19T20:19:43.285Z,88.17
2019-01-19T20:22:14.675Z,85.70
2019-01-19T20:24:45.956Z,93.77
2019-01-19T20:27:17.339Z,87.97
2019-01-19T20:29:48.629Z,96.23
2019-01-19T20:32:19.828Z,99.63
2019-01-19T20:34:50.939Z,93.50
2019-01-19T20:37:22.312Z,92.93
2019-01-19T20:39:53.436Z,97.30
2019-01-19T20:42:24.575Z,87.13
2019-01-19T20:44:55.791Z,100.33
2019-01-19T20:47:27.193Z,93.07
2019-01-19T20:49:58.522Z,94.47
2019-01-19T20:52:29.733Z,115.30
2019-01-19T20:55:00.945Z,108.70
2019-01-19T20:57:32.123Z,102.13
2019-01-19T21:00:08.676Z,91.53
2019-01-19T21:02:40.077Z,82.40
2019-01-19T21:05:11.371Z,86.80
2019-01-19T21:07:42.660Z,84.33
2019-01-19T21:10:14.290Z,85.00
2019-01-19T21:12:46.555Z,96.60
2019-01-19T21:15:17.748Z,84.87
2019-01-19T21:17:55.627Z,86.77
2019-01-19T21:20:22.041Z,88.33
2019-01-19T21:22:53.365Z,86.17
2019-01-19T21:25:24.784Z,88.63
2019-01-19T21:27:56.090Z,83.10
2019-01-19T21:30:27.483Z,90.20
2019-01-19T21:32:58.928Z,86.60
2019-01-19T21:35:30.204Z,100.90
2019-01-19T21:38:02.763Z,96.60
2019-01-19T21:40:38.957Z,94.03
2019-01-19T21:43:07.036Z,91.97
2019-01-19T21:45:38.349Z,96.43
2019-01-19T21:48:09.552Z,98.63
2019-01-19T21:50:40.736Z,102.70
2019-01-19T21:53:11.974Z,107.87
2019-01-19T21:55:43.358Z,102.37
2019-01-19T21:58:14.869Z,102.87
2019-01-19T22:00:46.100Z,104.23
2019-01-19T22:03:17.552Z,106.30
2019-01-19T22:05:49.715Z,103.80
2019-01-19T22:08:21.163Z,115.13
2019-01-19T22:10:52.485Z,109.33
2019-01-19T22:13:23.625Z,111.50
2019-01-19T22:15:54.894Z,103.37
2019-01-19T22:18:26.256Z,112.40
2019-01-19T22:20:57.673Z,92.00
2019-01-19T22:23:29.002Z,105.23
2019-01-19T22:26:00.238Z,114.90
2019-01-19T22:28:31.571Z,103.57
2019-01-19T22:31:02.789Z,105.67
2019-01-19T22:33:34.306Z,99.40
2019-01-19T22:36:05.594Z,100.60
2019-01-19T22:38:36.759Z,99.90
2019-01-19T22:41:08.034Z,111.50
2019-01-19T22:43:39.639Z,115.73
2019-01-19T22:46:11.070Z,104.63
2019-01-19T22:48:42.511Z,105.30
2019-01-19T22:51:13.839Z,112.43
2019-01-19T22:53:45.104Z,107.47
2019-01-19T22:56:16.358Z,103.97
2019-01-19T22:58:47.565Z,109.87
2019-01-19T23:01:35.032Z,102.70
2019-01-19T23:04:06.401Z,112.43
2019-01-19T23:06:37.532Z,109.93
2019-01-19T23:09:13.663Z,104.77
2019-01-19T23:11:44.959Z,107.33
2019-01-19T23:14:16.356Z,102.93
2019-01-19T23:16:47.598Z,116.97
2019-01-19T23:19:18.835Z,103.00
2019-01-19T23:21:50.161Z,104.90
2019-01-19T23:24:21.529Z,106.93
2019-01-19T23:26:54.346Z,113.80
2019-01-19T23:29:25.483Z,108.93
2019-01-19T23:31:56.660Z,105.73
2019-01-19T23:34:28.032Z,105.80
2019-01-19T23:36:59.430Z,107.43
2019-01-19T23:39:30.580Z,104.47
2019-01-19T23:42:01.955Z,112.10
2019-01-19T23:44:33.311Z,101.90
2019-01-19T23:47:04.778Z,98.87
2019-01-19T23:49:36.219Z,100.20
2019-01-19T23:52:07.556Z,98.93
2019-01-19T23:54:38.818Z,97.40
2019-01-19T23:57:09.939Z,97.90
2019-01-19T23:59:41.182Z,100.57
